Donnelly, ID (83615)

3:00 PM MST on November 27, 2014 (GMT -0700)
Railroad Village | Change Station
CLOSE
Current Station
Personal Weather Station
Location: Donnelly, ID
Elevation: 4872 ft
Nearby Weather Stations

Elev 4872 ft 44.70 °N, 116.08 °W | Updated 10 seconds ago

Overcast
Overcast
42.1 °F
Feels Like 42 °F
N
0.0
Wind Variable Wind from North
Gusts 5.7 mph

Today
High -- | Low -- °F
--% Chance of Precip.
Yesterday
High -- | Low -- °F
Precip. -- in
7:56 AM 5:06 PM
Waxing Crescent, 33% visible
Pressure 30.15 in
Visibility 9.0 miles
Clouds Overcast 3000 ft
Windchill 42 °F
Dew Point 26 °F
Humidity 52%
Rainfall 0.05 in
Snow Depth Not available.
UV 0 out of 12
Pollen 1.10 out of 12
Air Quality Not available.
Flu Activity Not available.
METAR KMYL 272151Z AUTO 17007KT 9SM -RA OVC030 04/01 A3010 RMK AO2 RAB2052 SLP208 P0001 T00390011

More Conditions Fewer Conditions

Pressure 30.15 in
Visibility 9.0 miles
Clouds Overcast 3000 ft
Windchill 42 °F
Dew Point 26 °F
Humidity 52%
Rainfall 0.05 in
Snow Depth Not available.
UV 0 out of 12
Pollen 1.10 out of 12
Air Quality Not available.
Flu Activity Not available.
METAR KMYL 272151Z AUTO 17007KT 9SM -RA OVC030 04/01 A3010 RMK AO2 RAB2052 SLP208 P0001 T00390011

More Conditions Fewer Conditions

10-Day Weather Forecast

Almanac

Astronomy

Nov. 27, 2014 Rise Set
Actual Time
Civil Twilight
Nautical Twilight
Astronomical Twilight
Moon
Length of Visible Light
Length of Day
Tomorrow will be .
, % of the Moon is Illuminated

Today's Extremes

State Highs State Lows

Community

WunderPhotos

Upload Photos

1,774,117 photos uploaded!

WunderBlogs® & News

Nearby

Air Quality

  Air Quality AQ Index Pollutant
Not available.

Snow Depth

Station Depth Elevation

Earthquake Activity

City Distance Mag. Time & Date
Minimum magnitude displayed is 2.5.

Coastal Water Temperatures

Place Temperature

Nearby Weather Stations